Time;durP1;ratioP1;P1;durP2;ratioP2;P2;SDS_P1;SDS_P2;PMS_P1;PMS_P2;Temp;Humidity;BMP_temperature;BMP_pressure;BME280_temperature;BME280_humidity;BME280_pressure;Samples;Min_cycle;Max_cycle;Signal;HPM_P1;HPM_P2
2024/04/08 00:00:31;;;;;;;14.83;5.50;;;16.20;91.60;;;;;;5035139;28;20272;-58
2024/04/08 00:02:57;;;;;;;7.27;4.73;;;16.20;91.70;;;;;;5024820;28;20655;-58
2024/04/08 00:05:24;;;;;;;7.97;5.10;;;16.20;91.70;;;;;;5032135;28;20214;-58
2024/04/08 00:07:54;;;;;;;9.07;4.90;;;16.10;91.60;;;;;;5033185;28;20202;-58
2024/04/08 00:10:20;;;;;;;11.97;5.70;;;16.10;91.60;;;;;;5034914;28;20225;-58
2024/04/08 00:12:46;;;;;;;9.83;5.17;;;16.00;91.60;;;;;;5038085;28;20237;-58
2024/04/08 00:15:13;;;;;;;8.40;5.03;;;16.00;91.70;;;;;;5038988;28;20214;-58
2024/04/08 00:17:44;;;;;;;11.83;5.73;;;15.90;91.70;;;;;;5036163;28;20221;-58
2024/04/08 00:20:25;;;;;;;8.67;5.33;;;15.80;91.80;;;;;;5035999;28;20203;-58
2024/04/08 00:23:17;;;;;;;6.57;4.83;;;15.80;91.90;;;;;;5027439;28;20215;-58
2024/04/08 00:25:43;;;;;;;11.07;5.27;;;15.80;91.90;;;;;;5033323;28;20231;-58
2024/04/08 00:28:09;;;;;;;6.43;4.90;;;15.70;92.00;;;;;;5031931;28;20619;-59
2024/04/08 00:30:35;;;;;;;8.20;4.80;;;15.60;92.10;;;;;;5028856;28;20291;-58
2024/04/08 00:33:01;;;;;;;10.07;5.23;;;15.60;92.20;;;;;;5037509;28;20220;-58
2024/04/08 00:35:27;;;;;;;5.93;4.93;;;15.60;92.30;;;;;;5042335;28;20624;-58
2024/04/08 00:37:53;;;;;;;5.93;5.20;;;15.60;92.30;;;;;;5040553;28;20248;-58
2024/04/08 00:40:19;;;;;;;9.77;5.57;;;15.60;92.30;;;;;;5033106;28;20206;-58
2024/04/08 00:42:46;;;;;;;7.73;5.13;;;15.60;92.30;;;;;;5037831;28;20205;-58
2024/04/08 00:45:13;;;;;;;7.50;4.83;;;15.60;92.30;;;;;;5035901;28;20225;-58
2024/04/08 00:47:39;;;;;;;6.57;4.83;;;15.70;92.30;;;;;;5036013;28;20241;-58
2024/04/08 00:50:05;;;;;;;4.97;4.47;;;15.70;92.30;;;;;;5029705;28;20246;-57
2024/04/08 00:52:31;;;;;;;6.77;5.30;;;15.70;92.30;;;;;;5034217;28;20552;-57
2024/04/08 00:54:57;;;;;;;5.47;4.50;;;15.60;92.30;;;;;;5039898;28;20199;-56
2024/04/08 00:57:24;;;;;;;7.13;4.93;;;15.60;92.30;;;;;;5029806;28;20530;-56
2024/04/08 00:59:50;;;;;;;5.13;4.53;;;15.60;92.30;;;;;;5035099;28;20242;-57
2024/04/08 01:02:17;;;;;;;6.47;4.60;;;15.60;92.40;;;;;;5034764;28;20273;-56
2024/04/08 01:04:43;;;;;;;9.50;5.10;;;15.60;92.40;;;;;;5037071;28;20203;-56
2024/04/08 01:07:09;;;;;;;5.50;4.80;;;15.60;92.40;;;;;;5031817;28;20270;-56
2024/04/08 01:09:35;;;;;;;8.70;5.30;;;15.60;92.40;;;;;;5033733;28;20230;-58
2024/04/08 01:12:01;;;;;;;6.73;5.20;;;15.60;92.50;;;;;;5037758;28;20284;-58
2024/04/08 01:14:27;;;;;;;9.83;5.30;;;15.50;92.50;;;;;;5048687;28;20222;-58
2024/04/08 01:16:53;;;;;;;5.83;4.37;;;15.50;92.50;;;;;;5034299;28;20206;-58
2024/04/08 01:19:23;;;;;;;9.33;4.47;;;15.50;92.60;;;;;;5040811;28;20292;-58
2024/04/08 01:21:50;;;;;;;6.87;4.80;;;15.50;92.60;;;;;;5033721;28;20198;-58
2024/04/08 01:24:16;;;;;;;6.63;4.63;;;15.50;92.60;;;;;;5030955;28;20639;-58
2024/04/08 01:26:42;;;;;;;7.13;4.87;;;15.50;92.50;;;;;;5036540;28;20244;-58
2024/04/08 01:29:08;;;;;;;8.00;5.07;;;15.50;92.50;;;;;;5034695;28;20546;-58
2024/04/08 01:31:34;;;;;;;7.67;5.30;;;15.50;92.50;;;;;;5038724;28;20215;-58
2024/04/08 01:34:01;;;;;;;8.40;5.07;;;15.50;92.40;;;;;;5036962;28;20201;-58
2024/04/08 01:36:27;;;;;;;6.17;4.73;;;15.40;92.80;;;;;;5032757;28;20280;-58
2024/04/08 01:38:53;;;;;;;7.17;4.60;;;15.40;92.50;;;;;;5038167;28;20241;-58
2024/04/08 01:41:19;;;;;;;5.67;4.57;;;15.40;92.50;;;;;;5037535;28;20192;-57
2024/04/08 01:43:45;;;;;;;12.50;5.13;;;15.40;92.50;;;;;;5032523;28;20707;-56
2024/04/08 01:46:12;;;;;;;9.60;4.67;;;15.40;92.50;;;;;;5027652;28;20235;-56
2024/04/08 01:48:38;;;;;;;7.73;4.90;;;15.40;92.60;;;;;;5033466;28;20269;-57
2024/04/08 01:51:04;;;;;;;8.17;4.23;;;15.40;92.60;;;;;;5034246;28;20236;-56
2024/04/08 01:53:31;;;;;;;5.03;4.20;;;15.30;92.60;;;;;;5040927;28;20323;-56
2024/04/08 01:55:58;;;;;;;8.07;4.80;;;15.30;92.60;;;;;;5035609;28;20215;-56
2024/04/08 01:58:24;;;;;;;8.90;5.77;;;15.30;92.50;;;;;;5029783;28;20203;-56
2024/04/08 02:00:50;;;;;;;6.17;5.13;;;15.30;92.60;;;;;;5036223;28;20624;-56
2024/04/08 02:03:16;;;;;;;6.33;4.83;;;15.30;92.60;;;;;;5041242;28;20209;-56
2024/04/08 02:05:45;;;;;;;7.93;4.73;;;15.20;92.60;;;;;;5033385;28;20200;-56
2024/04/08 02:08:11;;;;;;;6.07;4.53;;;15.20;92.70;;;;;;5037987;28;20209;-58
2024/04/08 02:10:37;;;;;;;7.80;4.73;;;15.20;92.80;;;;;;5037312;28;20645;-58
2024/04/08 02:13:03;;;;;;;5.53;4.93;;;15.20;92.80;;;;;;5045897;28;20232;-59
2024/04/08 02:15:30;;;;;;;5.20;4.70;;;15.20;92.80;;;;;;5036419;28;20248;-57
2024/04/08 02:17:56;;;;;;;10.33;5.13;;;15.20;92.80;;;;;;5036387;28;20210;-56
2024/04/08 02:20:22;;;;;;;8.90;5.20;;;15.20;92.90;;;;;;5036983;28;20214;-56
2024/04/08 02:22:48;;;;;;;8.97;5.33;;;15.20;92.90;;;;;;5038479;28;20211;-56
2024/04/08 02:25:14;;;;;;;8.93;5.27;;;15.20;92.90;;;;;;5041896;28;20216;-56
2024/04/08 02:27:40;;;;;;;11.93;5.47;;;15.20;92.90;;;;;;5029553;28;20262;-57
2024/04/08 02:30:06;;;;;;;9.00;5.10;;;15.20;92.90;;;;;;5034773;28;20304;-56
2024/04/08 02:32:32;;;;;;;7.20;5.20;;;15.20;93.00;;;;;;5034328;28;20204;-56
2024/04/08 02:34:59;;;;;;;10.87;6.07;;;15.20;93.00;;;;;;5037334;28;20283;-56
2024/04/08 02:37:25;;;;;;;10.07;5.43;;;15.20;93.00;;;;;;5038200;28;20226;-56
2024/04/08 02:39:51;;;;;;;8.50;5.37;;;15.20;93.10;;;;;;5036545;28;20237;-56
2024/04/08 02:42:17;;;;;;;8.13;5.23;;;15.20;93.10;;;;;;5036433;28;20237;-57
2024/04/08 02:44:43;;;;;;;7.53;5.10;;;15.10;93.00;;;;;;5037345;28;20271;-56
2024/04/08 02:47:09;;;;;;;15.10;5.90;;;15.10;93.00;;;;;;5039442;28;20632;-56
2024/04/08 02:49:35;;;;;;;7.80;5.30;;;15.10;93.30;;;;;;5035530;28;20605;-56
2024/04/08 02:52:01;;;;;;;7.50;5.23;;;15.10;93.00;;;;;;5046221;28;20221;-56
2024/04/08 02:54:27;;;;;;;6.60;5.10;;;15.10;93.00;;;;;;5038388;28;20236;-56
2024/04/08 02:56:53;;;;;;;12.57;6.07;;;15.00;93.10;;;;;;5037029;28;20766;-56
2024/04/08 02:59:19;;;;;;;6.60;5.17;;;15.00;93.10;;;;;;5037347;28;20584;-56
2024/04/08 03:01:48;;;;;;;10.03;5.60;;;15.00;93.10;;;;;;5026637;28;20345;-56
2024/04/08 03:04:14;;;;;;;8.30;5.43;;;15.00;93.10;;;;;;5039328;28;20679;-56
2024/04/08 03:06:40;;;;;;;8.67;6.30;;;15.00;93.20;;;;;;5035341;28;20298;-58
2024/04/08 03:09:06;;;;;;;11.53;5.13;;;15.00;93.20;;;;;;5040930;28;20521;-58
2024/04/08 03:11:32;;;;;;;6.60;4.93;;;15.00;93.30;;;;;;5038293;28;20230;-58
2024/04/08 03:13:58;;;;;;;11.10;4.80;;;15.00;93.30;;;;;;5035222;28;20199;-58
2024/04/08 03:16:24;;;;;;;7.10;5.13;;;14.90;93.30;;;;;;5030857;28;20293;-58
2024/04/08 03:18:51;;;;;;;9.27;5.67;;;14.90;93.30;;;;;;5039921;28;20201;-58
2024/04/08 03:21:17;;;;;;;11.03;5.43;;;14.90;93.30;;;;;;5039161;28;20199;-58
2024/04/08 03:23:43;;;;;;;6.97;4.90;;;14.90;93.30;;;;;;5006940;28;20279;-58
2024/04/08 03:26:12;;;;;;;7.37;5.30;;;14.90;93.30;;;;;;5035318;28;20608;-58
2024/04/08 03:28:38;;;;;;;11.47;5.40;;;14.80;93.30;;;;;;5038965;28;20312;-58
2024/04/08 03:31:05;;;;;;;9.40;5.13;;;14.80;93.40;;;;;;5037179;28;20206;-58
2024/04/08 03:33:33;;;;;;;7.73;5.20;;;14.80;93.50;;;;;;5032391;28;20198;-58
2024/04/08 03:36:00;;;;;;;6.17;4.83;;;14.80;93.50;;;;;;5035560;28;20279;-58
2024/04/08 03:38:27;;;;;;;8.63;4.83;;;14.80;93.50;;;;;;5007015;28;20203;-58
2024/04/08 03:41:06;;;;;;;6.40;4.80;;;14.80;93.60;;;;;;5036226;28;20204;-58
2024/04/08 03:43:33;;;;;;;6.50;4.50;;;14.80;93.60;;;;;;5035736;28;20217;-58
2024/04/08 03:46:00;;;;;;;5.80;4.73;;;14.80;93.60;;;;;;5033857;28;20259;-58
2024/04/08 03:48:27;;;;;;;9.10;4.80;;;14.80;93.50;;;;;;5040402;28;20259;-58
2024/04/08 03:50:54;;;;;;;5.93;4.53;;;14.70;93.50;;;;;;5017967;28;20197;-58
2024/04/08 03:53:22;;;;;;;5.30;4.03;;;14.70;93.50;;;;;;4998958;28;20640;-58
2024/04/08 03:55:48;;;;;;;9.23;4.60;;;14.70;93.60;;;;;;5035928;28;20484;-58
2024/04/08 03:58:15;;;;;;;5.10;4.17;;;14.70;93.60;;;;;;4996807;28;20268;-58
2024/04/08 04:00:43;;;;;;;5.47;4.10;;;14.70;93.60;;;;;;5002517;28;20258;-58
2024/04/08 04:03:09;;;;;;;9.37;4.87;;;14.70;93.60;;;;;;5039972;28;20231;-58
2024/04/08 04:05:36;;;;;;;10.23;4.70;;;14.70;93.70;;;;;;5006101;28;20527;-58
2024/04/08 04:08:03;;;;;;;8.33;4.60;;;14.70;93.70;;;;;;5032402;28;20313;-58
2024/04/08 04:10:29;;;;;;;5.83;4.43;;;14.70;93.70;;;;;;5006827;28;20609;-58
2024/04/08 04:12:55;;;;;;;7.07;4.87;;;14.60;93.70;;;;;;5034761;28;20201;-58
2024/04/08 04:15:21;;;;;;;7.63;4.43;;;14.60;93.80;;;;;;5038792;28;20220;-58
2024/04/08 04:17:48;;;;;;;5.40;3.83;;;14.60;93.80;;;;;;5020363;28;20544;-58
2024/04/08 04:20:21;;;;;;;6.03;4.33;;;14.60;93.80;;;;;;5018886;28;20245;-58
2024/04/08 04:22:48;;;;;;;5.17;3.90;;;14.60;93.80;;;;;;5034708;28;20209;-58
2024/04/08 04:25:17;;;;;;;6.07;4.50;;;14.50;93.80;;;;;;5012167;28;20212;-58
2024/04/08 04:27:43;;;;;;;5.93;4.70;;;14.50;93.80;;;;;;5039239;28;20210;-58
2024/04/08 04:30:10;;;;;;;6.73;4.40;;;14.50;93.80;;;;;;5022813;28;20258;-58
2024/04/08 04:32:37;;;;;;;8.80;4.30;;;14.50;93.80;;;;;;5037496;28;20209;-59
2024/04/08 04:35:04;;;;;;;4.93;4.43;;;14.50;93.80;;;;;;5020220;28;20581;-58
2024/04/08 04:37:31;;;;;;;6.70;4.10;;;14.50;93.80;;;;;;5038248;28;20202;-58
2024/04/08 04:39:57;;;;;;;7.00;4.10;;;14.50;93.90;;;;;;5029999;28;20227;-58
2024/04/08 04:42:23;;;;;;;8.47;5.10;;;14.50;94.00;;;;;;5031401;28;20544;-58
2024/04/08 04:44:51;;;;;;;8.20;4.97;;;14.60;94.00;;;;;;4989429;28;20658;-58
2024/04/08 04:47:19;;;;;;;4.47;4.07;;;14.60;93.90;;;;;;5017242;28;20199;-58
2024/04/08 04:49:46;;;;;;;5.57;4.27;;;14.60;93.90;;;;;;5020632;28;20732;-58
2024/04/08 04:52:13;;;;;;;5.47;4.10;;;14.60;93.90;;;;;;5035009;28;20536;-58
2024/04/08 04:54:40;;;;;;;12.00;5.37;;;14.50;93.90;;;;;;5018665;28;20210;-58
2024/04/08 04:57:07;;;;;;;8.07;4.57;;;14.50;93.90;;;;;;5003662;28;20196;-58
2024/04/08 04:59:34;;;;;;;6.93;4.03;;;14.50;94.00;;;;;;5025964;28;20202;-58
2024/04/08 05:02:01;;;;;;;7.40;4.43;;;14.50;94.00;;;;;;4999347;28;20571;-58
2024/04/08 05:04:27;;;;;;;8.07;4.40;;;14.50;94.00;;;;;;5017675;28;20623;-58
2024/04/08 05:06:55;;;;;;;6.80;4.77;;;14.60;94.00;;;;;;5025272;28;20294;-58
2024/04/08 05:09:21;;;;;;;12.33;5.13;;;14.60;94.00;;;;;;5018430;28;20675;-59
2024/04/08 05:11:48;;;;;;;6.43;4.07;;;14.60;94.00;;;;;;5032598;28;20204;-58
2024/04/08 05:14:15;;;;;;;11.27;4.03;;;14.60;94.00;;;;;;5022913;28;20253;-58
2024/04/08 05:16:41;;;;;;;7.93;5.43;;;14.70;94.10;;;;;;5032621;28;20198;-59
2024/04/08 05:19:09;;;;;;;8.63;4.20;;;14.70;94.10;;;;;;5034013;28;20245;-58
2024/04/08 05:21:36;;;;;;;4.47;3.90;;;14.70;94.10;;;;;;5013996;28;20202;-58
2024/04/08 05:24:03;;;;;;;5.30;3.83;;;14.80;94.10;;;;;;5033186;28;20207;-58
2024/04/08 05:26:30;;;;;;;6.80;4.57;;;14.80;94.10;;;;;;5003755;28;20229;-58
2024/04/08 05:28:56;;;;;;;6.57;4.77;;;14.90;94.20;;;;;;5038885;28;20226;-59
2024/04/08 05:31:23;;;;;;;4.23;3.60;;;14.90;94.20;;;;;;5005406;28;20256;-58
2024/04/08 05:33:50;;;;;;;7.17;3.97;;;15.00;94.20;;;;;;5023105;28;20202;-58
2024/04/08 05:36:17;;;;;;;5.40;4.20;;;15.10;94.20;;;;;;5019519;28;20191;-58
2024/04/08 05:38:44;;;;;;;15.77;4.70;;;15.10;94.20;;;;;;5021648;28;20211;-58
2024/04/08 05:41:10;;;;;;;9.40;4.27;;;15.20;94.10;;;;;;5037800;28;20567;-58
2024/04/08 05:43:36;;;;;;;7.00;3.90;;;15.30;94.10;;;;;;5039850;28;20642;-59
2024/04/08 05:46:03;;;;;;;7.43;4.80;;;15.30;94.40;;;;;;5024743;28;20203;-58
2024/04/08 05:48:29;;;;;;;5.27;4.20;;;15.40;94.10;;;;;;5040033;28;20213;-58
2024/04/08 05:50:56;;;;;;;5.60;4.67;;;15.40;94.10;;;;;;5005309;28;20567;-58
2024/04/08 05:53:23;;;;;;;5.30;4.30;;;15.50;94.20;;;;;;5044735;28;20615;-58
2024/04/08 05:55:50;;;;;;;7.80;4.63;;;15.60;94.20;;;;;;5027052;28;20223;-59
2024/04/08 05:58:17;;;;;;;8.77;4.20;;;15.70;94.20;;;;;;5020399;28;20190;-58
2024/04/08 06:00:45;;;;;;;7.73;4.93;;;15.80;94.30;;;;;;5022133;28;20261;-59
2024/04/08 06:03:12;;;;;;;15.57;4.90;;;15.90;94.40;;;;;;5017754;28;20190;-58
2024/04/08 06:05:41;;;;;;;10.07;4.43;;;16.10;94.30;;;;;;5040349;28;20241;-58
2024/04/08 06:08:08;;;;;;;8.90;4.60;;;16.20;94.20;;;;;;5015124;28;20214;-58
2024/04/08 06:10:36;;;;;;;8.37;4.20;;;16.50;94.00;;;;;;5034215;28;20223;-58
2024/04/08 06:13:03;;;;;;;6.03;4.40;;;16.70;93.90;;;;;;5037497;28;20200;-58
2024/04/08 06:15:31;;;;;;;10.97;4.07;;;16.80;93.60;;;;;;5037890;28;20651;-58
2024/04/08 06:17:58;;;;;;;6.30;4.60;;;17.10;93.50;;;;;;5022396;28;20239;-58
2024/04/08 06:20:25;;;;;;;10.93;3.67;;;17.20;93.30;;;;;;5031685;28;20260;-58
2024/04/08 06:22:52;;;;;;;10.43;4.50;;;17.40;93.10;;;;;;5023972;28;20201;-58
2024/04/08 06:25:18;;;;;;;4.90;3.63;;;17.60;92.90;;;;;;5012487;28;20533;-58
2024/04/08 06:27:47;;;;;;;7.57;4.23;;;17.70;92.70;;;;;;5040104;28;20213;-57
2024/04/08 06:30:14;;;;;;;8.73;3.97;;;17.90;92.50;;;;;;5022649;28;20283;-58
2024/04/08 06:32:41;;;;;;;7.40;3.80;;;18.00;92.40;;;;;;5035881;28;20198;-58
2024/04/08 06:35:07;;;;;;;5.50;3.90;;;18.20;92.20;;;;;;5043186;28;20214;-58
2024/04/08 06:37:33;;;;;;;7.23;4.50;;;18.30;92.00;;;;;;5037199;28;20203;-58
2024/04/08 06:39:59;;;;;;;7.93;4.27;;;18.40;91.80;;;;;;5036632;28;20215;-58
2024/04/08 06:42:26;;;;;;;5.37;4.03;;;18.60;91.70;;;;;;5019117;28;20218;-59
2024/04/08 06:44:53;;;;;;;7.97;4.23;;;18.70;91.50;;;;;;5039194;28;20198;-58
2024/04/08 06:47:19;;;;;;;15.00;5.00;;;18.80;91.00;;;;;;5038525;28;20216;-59
2024/04/08 06:49:47;;;;;;;7.67;5.03;;;18.80;90.70;;;;;;5022841;28;20268;-58
2024/04/08 06:52:14;;;;;;;8.90;4.40;;;18.90;90.60;;;;;;5024165;28;20240;-59
2024/04/08 06:54:41;;;;;;;13.00;5.27;;;18.90;90.60;;;;;;5019663;28;20226;-58
2024/04/08 06:57:08;;;;;;;7.90;5.13;;;18.90;90.40;;;;;;5001575;28;20200;-58
2024/04/08 06:59:34;;;;;;;14.10;5.90;;;19.00;90.40;;;;;;5035878;28;20215;-58
2024/04/08 07:02:03;;;;;;;9.53;5.93;;;19.00;90.50;;;;;;5028968;28;20310;-58
2024/04/08 07:04:29;;;;;;;10.13;5.07;;;19.10;90.70;;;;;;5029118;28;20206;-58
2024/04/08 07:06:56;;;;;;;9.73;5.73;;;19.10;90.60;;;;;;5020114;28;20207;-59
2024/04/08 07:09:26;;;;;;;6.43;5.47;;;19.10;90.40;;;;;;5036809;28;20236;-59
2024/04/08 07:11:53;;;;;;;9.83;5.87;;;19.20;90.30;;;;;;5014209;28;20628;-57
2024/04/08 07:14:19;;;;;;;9.80;5.90;;;19.30;90.20;;;;;;5031696;28;20576;-58
2024/04/08 07:16:48;;;;;;;10.40;6.07;;;19.30;90.20;;;;;;5021437;28;20213;-58
2024/04/08 07:19:15;;;;;;;11.50;5.87;;;19.40;90.40;;;;;;5018426;28;20573;-58
2024/04/08 07:21:41;;;;;;;16.80;5.87;;;19.50;90.40;;;;;;5022446;28;20210;-58
2024/04/08 07:24:07;;;;;;;11.00;6.00;;;19.60;90.30;;;;;;5035675;28;20207;-58
2024/04/08 07:26:34;;;;;;;8.27;5.93;;;19.70;89.70;;;;;;5034819;28;20199;-58
2024/04/08 07:29:01;;;;;;;17.40;7.37;;;19.90;89.50;;;;;;5025230;28;20771;-58
2024/04/08 07:31:28;;;;;;;12.07;7.67;;;20.10;89.50;;;;;;5016970;28;20200;-58
2024/04/08 07:33:54;;;;;;;9.93;7.80;;;20.20;88.50;;;;;;5037987;28;20230;-57
2024/04/08 07:36:20;;;;;;;10.17;7.40;;;20.30;87.90;;;;;;5027498;28;20191;-58
2024/04/08 07:38:47;;;;;;;11.07;7.57;;;20.50;87.70;;;;;;5028021;28;20633;-59
2024/04/08 07:41:13;;;;;;;10.03;7.93;;;20.70;87.90;;;;;;4998336;28;20195;-59
2024/04/08 07:43:41;;;;;;;8.90;6.93;;;20.80;87.80;;;;;;5006141;28;20264;-59
2024/04/08 07:46:07;;;;;;;12.90;7.43;;;21.00;87.60;;;;;;5041404;28;20217;-59
2024/04/08 07:48:33;;;;;;;7.87;6.57;;;21.20;87.10;;;;;;5032186;28;20298;-59
2024/04/08 07:51:00;;;;;;;11.53;7.50;;;21.30;86.00;;;;;;5020406;28;20199;-59
2024/04/08 07:53:27;;;;;;;11.03;7.83;;;21.40;85.20;;;;;;5022674;28;20289;-59
2024/04/08 07:55:53;;;;;;;15.03;7.07;;;21.60;85.10;;;;;;5026685;28;20230;-58
2024/04/08 07:58:19;;;;;;;12.47;7.23;;;21.80;84.90;;;;;;5035488;28;20226;-59
2024/04/08 08:00:58;;;;;;;12.43;6.63;;;22.00;84.50;;;;;;5035709;28;20242;-57
2024/04/08 08:03:28;;;;;;;12.20;7.07;;;22.10;84.00;;;;;;5029731;28;20644;-57
2024/04/08 08:05:55;;;;;;;10.17;6.73;;;22.30;83.70;;;;;;5038510;28;20208;-56
2024/04/08 08:08:25;;;;;;;13.03;7.33;;;22.60;83.00;;;;;;5037311;28;20200;-58
2024/04/08 08:10:58;;;;;;;8.83;6.70;;;22.70;81.40;;;;;;5019682;28;20699;-59
2024/04/08 08:13:24;;;;;;;7.70;6.80;;;22.90;81.00;;;;;;5015074;28;20454;-59
2024/04/08 08:15:55;;;;;;;11.50;7.27;;;23.00;80.80;;;;;;5037589;28;20201;-59
2024/04/08 08:18:21;;;;;;;6.57;5.83;;;23.20;80.40;;;;;;4995422;28;20542;-59
2024/04/08 08:20:48;;;;;;;8.83;6.53;;;23.40;80.40;;;;;;5011110;28;20196;-56
2024/04/08 08:23:15;;;;;;;8.87;6.07;;;23.50;80.20;;;;;;5040493;28;20203;-58
2024/04/08 08:25:42;;;;;;;12.80;6.70;;;23.70;79.50;;;;;;5019911;28;20608;-57
2024/04/08 08:28:09;;;;;;;9.30;5.90;;;23.80;79.00;;;;;;5022207;28;20256;-57
2024/04/08 08:30:37;;;;;;;6.00;5.20;;;23.90;78.60;;;;;;5022163;28;20226;-58
2024/04/08 08:33:05;;;;;;;7.23;5.60;;;24.00;78.10;;;;;;5037060;28;20199;-58
2024/04/08 08:35:31;;;;;;;12.27;5.93;;;24.10;77.70;;;;;;5031722;28;20258;-58
2024/04/08 08:37:58;;;;;;;8.33;6.10;;;24.10;77.30;;;;;;5023427;28;20207;-57
2024/04/08 08:40:25;;;;;;;9.23;5.80;;;24.20;77.10;;;;;;5033875;28;20218;-57
2024/04/08 08:42:54;;;;;;;9.10;5.17;;;24.30;77.10;;;;;;5026022;28;20210;-57
2024/04/08 08:45:20;;;;;;;7.53;5.60;;;24.40;76.70;;;;;;5005413;28;20238;-57
2024/04/08 08:47:47;;;;;;;9.27;5.90;;;24.40;76.30;;;;;;5035362;28;20556;-57
2024/04/08 08:50:13;;;;;;;9.67;5.83;;;24.40;75.70;;;;;;5037501;28;20218;-57
2024/04/08 08:52:39;;;;;;;8.13;5.17;;;24.40;75.50;;;;;;5037689;28;20230;-57
2024/04/08 08:55:06;;;;;;;5.93;5.33;;;24.40;75.80;;;;;;5015351;28;20294;-57
2024/04/08 08:57:33;;;;;;;7.63;5.13;;;24.30;75.80;;;;;;5029798;28;20204;-57
2024/04/08 09:00:08;;;;;;;7.43;5.87;;;24.20;76.00;;;;;;5019488;28;20199;-58
2024/04/08 09:02:36;;;;;;;9.37;5.80;;;24.00;76.00;;;;;;5033007;28;20256;-57
2024/04/08 09:05:02;;;;;;;10.03;5.13;;;24.00;76.50;;;;;;5034996;28;20208;-56
2024/04/08 09:07:28;;;;;;;8.17;5.63;;;24.00;76.20;;;;;;5036304;28;20289;-57
2024/04/08 09:09:56;;;;;;;7.93;5.17;;;24.10;76.30;;;;;;5035127;28;20230;-58
2024/04/08 09:12:23;;;;;;;8.50;5.40;;;24.30;76.40;;;;;;5038841;28;20203;-57
2024/04/08 09:14:51;;;;;;;9.63;5.60;;;24.60;75.90;;;;;;5023283;28;20208;-58
2024/04/08 09:17:18;;;;;;;7.37;6.30;;;24.90;75.60;;;;;;5028418;28;20198;-57
2024/04/08 09:19:45;;;;;;;7.53;5.63;;;25.10;75.10;;;;;;5010999;28;20215;-57
2024/04/08 09:22:13;;;;;;;10.57;6.77;;;25.30;74.00;;;;;;5006603;28;20208;-57
2024/04/08 09:24:43;;;;;;;11.63;5.53;;;25.50;73.20;;;;;;5039480;28;20279;-57
2024/04/08 09:27:12;;;;;;;9.93;5.80;;;25.70;72.30;;;;;;5025142;28;20204;-57
2024/04/08 09:29:39;;;;;;;7.63;6.07;;;25.80;70.90;;;;;;4993529;28;20212;-57
2024/04/08 09:32:08;;;;;;;7.80;5.60;;;26.00;70.30;;;;;;5007814;28;20206;-57
2024/04/08 09:34:34;;;;;;;8.30;5.67;;;26.00;69.80;;;;;;5036840;28;20245;-57
2024/04/08 09:37:03;;;;;;;13.20;5.37;;;26.10;68.30;;;;;;5035176;28;20238;-57
2024/04/08 09:39:31;;;;;;;7.80;6.10;;;26.00;67.60;;;;;;5026113;28;20209;-57
2024/04/08 09:41:59;;;;;;;11.63;6.60;;;26.00;68.10;;;;;;5044476;28;20222;-57
2024/04/08 09:44:30;;;;;;;11.07;7.30;;;26.00;68.80;;;;;;5041440;28;20199;-57
2024/04/08 09:47:01;;;;;;;9.90;6.97;;;26.00;69.50;;;;;;5009012;28;20563;-58
2024/04/08 09:49:28;;;;;;;12.30;6.30;;;26.00;70.20;;;;;;5024060;28;20211;-57
2024/04/08 09:51:56;;;;;;;9.63;7.27;;;26.10;69.50;;;;;;5021407;28;20629;-57
2024/04/08 09:54:23;;;;;;;12.17;7.57;;;26.20;69.90;;;;;;4986749;28;20235;-57
2024/04/08 09:56:51;;;;;;;10.67;8.03;;;26.30;70.10;;;;;;5022903;28;20592;-58
2024/04/08 09:59:20;;;;;;;11.67;8.10;;;26.50;70.40;;;;;;5029583;28;20207;-57
2024/04/08 10:01:47;;;;;;;10.00;8.37;;;26.70;70.40;;;;;;5044504;28;20271;-57
2024/04/08 10:04:20;;;;;;;13.93;7.33;;;26.90;69.40;;;;;;5035020;28;20203;-57
2024/04/08 10:06:47;;;;;;;14.73;8.23;;;27.00;68.80;;;;;;5023801;28;20669;-57
2024/04/08 10:09:16;;;;;;;13.77;8.73;;;27.10;67.80;;;;;;5044376;28;20211;-58
2024/04/08 10:11:46;;;;;;;9.47;7.70;;;27.10;67.50;;;;;;5017734;28;20232;-57
2024/04/08 10:14:19;;;;;;;15.50;8.97;;;27.00;68.10;;;;;;5021458;28;20208;-57
2024/04/08 10:16:49;;;;;;;12.87;8.57;;;27.00;68.50;;;;;;5038643;28;20206;-58
2024/04/08 10:19:19;;;;;;;11.93;9.40;;;27.00;68.70;;;;;;5022355;28;20211;-57
2024/04/08 10:21:46;;;;;;;11.87;9.43;;;27.10;68.10;;;;;;5007114;28;20224;-58
2024/04/08 10:24:35;;;;;;;12.73;9.10;;;27.10;67.40;;;;;;5039380;28;20219;-58
2024/04/08 10:27:03;;;;;;;12.47;9.63;;;27.00;67.30;;;;;;5035201;28;20200;-59
2024/04/08 10:29:32;;;;;;;9.87;8.70;;;26.90;67.30;;;;;;5025848;28;20218;-58
2024/04/08 10:31:59;;;;;;;12.83;8.60;;;26.90;67.80;;;;;;5022043;28;20250;-58
2024/04/08 10:34:26;;;;;;;9.03;7.53;;;26.90;68.30;;;;;;5016703;28;20199;-58
2024/04/08 10:36:54;;;;;;;11.77;8.50;;;26.90;66.50;;;;;;5006005;28;20210;-59
2024/04/08 10:39:27;;;;;;;12.50;8.37;;;26.90;67.00;;;;;;5016889;28;20199;-58
2024/04/08 10:42:13;;;;;;;12.47;7.37;;;27.00;67.30;;;;;;5023447;28;20210;-58
2024/04/08 10:44:40;;;;;;;10.77;7.63;;;27.10;67.90;;;;;;5039795;28;20196;-58
2024/04/08 10:47:08;;;;;;;10.30;6.43;;;27.20;67.70;;;;;;5021838;28;20257;-59
2024/04/08 10:49:35;;;;;;;7.20;6.00;;;27.30;67.40;;;;;;5036931;28;20660;-58
2024/04/08 10:52:03;;;;;;;12.13;5.50;;;27.40;66.70;;;;;;5026200;28;20210;-58
2024/04/08 10:54:31;;;;;;;10.13;6.00;;;27.40;65.30;;;;;;5003364;28;20207;-59
2024/04/08 10:56:57;;;;;;;9.00;5.90;;;27.40;64.90;;;;;;5042347;28;20193;-58
2024/04/08 10:59:23;;;;;;;7.73;5.57;;;27.30;65.00;;;;;;5037792;28;20608;-58
2024/04/08 11:01:50;;;;;;;8.17;3.73;;;27.30;65.70;;;;;;5039377;28;20247;-59
2024/04/08 11:04:18;;;;;;;6.07;3.57;;;27.30;66.00;;;;;;5020426;28;20224;-59
2024/04/08 11:06:44;;;;;;;8.30;3.93;;;27.30;64.80;;;;;;5039126;28;20207;-59
2024/04/08 11:09:10;;;;;;;7.10;3.80;;;27.30;63.20;;;;;;5021665;28;20234;-59
2024/04/08 11:11:37;;;;;;;3.70;2.93;;;27.30;63.20;;;;;;5007581;28;20210;-58
2024/04/08 11:14:05;;;;;;;3.53;2.70;;;27.30;63.10;;;;;;5025901;28;20209;-58
2024/04/08 11:16:31;;;;;;;4.87;3.17;;;27.20;62.50;;;;;;5035334;28;20198;-59
2024/04/08 11:18:58;;;;;;;6.07;3.50;;;27.10;62.80;;;;;;5039975;28;20686;-58
2024/04/08 11:21:26;;;;;;;7.57;4.30;;;26.90;63.10;;;;;;5037236;28;20509;-58
2024/04/08 11:23:53;;;;;;;6.53;4.93;;;26.80;63.80;;;;;;5000955;28;20200;-58
2024/04/08 11:26:19;;;;;;;13.60;4.83;;;26.70;64.10;;;;;;5040104;28;20250;-58
2024/04/08 11:28:46;;;;;;;7.53;4.67;;;26.80;64.60;;;;;;5005655;28;20203;-58
2024/04/08 11:31:12;;;;;;;6.30;4.20;;;26.90;65.00;;;;;;5033965;28;20195;-58
2024/04/08 11:33:38;;;;;;;13.53;5.30;;;27.10;64.00;;;;;;5022740;28;20298;-59
2024/04/08 11:36:07;;;;;;;9.70;4.73;;;27.30;63.20;;;;;;5033800;28;20602;-58
2024/04/08 11:38:33;;;;;;;9.07;5.13;;;27.50;62.20;;;;;;5023977;28;20224;-58
2024/04/08 11:41:00;;;;;;;8.90;4.50;;;27.50;62.00;;;;;;5021324;28;20200;-58
2024/04/08 11:43:26;;;;;;;9.07;4.87;;;27.60;62.20;;;;;;5034674;28;20211;-59
2024/04/08 11:45:52;;;;;;;9.40;4.30;;;27.50;61.60;;;;;;5031395;28;20206;-59
2024/04/08 11:48:21;;;;;;;13.67;4.80;;;27.50;61.50;;;;;;5042652;28;20289;-59
2024/04/08 11:50:47;;;;;;;7.80;3.47;;;27.40;60.90;;;;;;5006430;28;20660;-57
2024/04/08 11:53:14;;;;;;;7.77;3.27;;;27.40;61.70;;;;;;5021416;28;20228;-59
2024/04/08 11:55:41;;;;;;;6.60;3.10;;;27.20;62.00;;;;;;5038155;28;20657;-59
2024/04/08 11:58:07;;;;;;;5.63;2.53;;;27.20;62.10;;;;;;5001943;28;20203;-59
2024/04/08 12:00:33;;;;;;;5.70;2.80;;;27.20;62.40;;;;;;5033323;28;20228;-58
2024/04/08 12:03:00;;;;;;;9.10;3.37;;;27.30;62.30;;;;;;5040397;28;20206;-59
2024/04/08 12:05:27;;;;;;;8.47;2.20;;;27.40;60.50;;;;;;5006407;28;20209;-58
2024/04/08 12:07:56;;;;;;;4.37;2.67;;;27.50;60.90;;;;;;5018654;28;20204;-58
2024/04/08 12:10:22;;;;;;;6.97;2.83;;;27.60;60.30;;;;;;5027871;28;20218;-59
2024/04/08 12:12:48;;;;;;;3.20;2.43;;;27.60;60.50;;;;;;5030186;28;20509;-59
2024/04/08 12:15:19;;;;;;;5.50;2.77;;;27.70;61.00;;;;;;5026444;28;20211;-59
2024/04/08 12:17:46;;;;;;;5.20;3.00;;;27.70;61.10;;;;;;5035786;28;20213;-59
2024/04/08 12:20:14;;;;;;;4.43;2.73;;;27.70;59.60;;;;;;5022086;28;20208;-59
2024/04/08 12:22:41;;;;;;;5.73;2.77;;;27.90;59.80;;;;;;5027218;28;20202;-59
2024/04/08 12:25:08;;;;;;;4.30;2.40;;;27.90;59.30;;;;;;5032093;28;20195;-59
2024/04/08 12:27:35;;;;;;;7.30;3.17;;;27.90;58.90;;;;;;5030161;28;20211;-59
2024/04/08 12:30:02;;;;;;;4.60;2.80;;;27.90;59.10;;;;;;5005725;28;20224;-59
2024/04/08 12:32:29;;;;;;;5.37;3.20;;;27.90;60.00;;;;;;5045721;28;20226;-58
2024/04/08 12:34:56;;;;;;;5.17;3.20;;;28.00;59.00;;;;;;5028973;28;20681;-59
2024/04/08 12:37:23;;;;;;;3.67;2.63;;;28.10;58.80;;;;;;5037826;28;20629;-58
2024/04/08 12:39:49;;;;;;;6.10;3.10;;;28.10;59.10;;;;;;5035340;28;20217;-59
2024/04/08 12:42:15;;;;;;;3.70;2.43;;;28.10;59.10;;;;;;5034792;28;20220;-58